sensor_id;sensor_type;location;lat;lon;timestamp;P1;durP1;ratioP1;P2;durP2;ratioP2
84021;SDS011;74108;48.636;9.492;2024-02-16T00:00:27;7.05;;;3.65;;
84021;SDS011;74108;48.636;9.492;2024-02-16T00:02:52;5.20;;;3.20;;
84021;SDS011;74108;48.636;9.492;2024-02-16T00:05:18;8.77;;;3.80;;
84021;SDS011;74108;48.636;9.492;2024-02-16T00:07:43;7.03;;;3.33;;
84021;SDS011;74108;48.636;9.492;2024-02-16T00:10:09;10.35;;;4.50;;
84021;SDS011;74108;48.636;9.492;2024-02-16T00:12:35;10.73;;;4.22;;
84021;SDS011;74108;48.636;9.492;2024-02-16T00:15:01;8.98;;;4.25;;
84021;SDS011;74108;48.636;9.492;2024-02-16T00:17:28;7.78;;;4.30;;
84021;SDS011;74108;48.636;9.492;2024-02-16T00:19:54;12.13;;;4.70;;
84021;SDS011;74108;48.636;9.492;2024-02-16T00:22:20;9.57;;;4.28;;
84021;SDS011;74108;48.636;9.492;2024-02-16T00:24:45;7.28;;;4.15;;
84021;SDS011;74108;48.636;9.492;2024-02-16T00:27:11;7.20;;;3.95;;
84021;SDS011;74108;48.636;9.492;2024-02-16T00:29:36;7.82;;;3.90;;
84021;SDS011;74108;48.636;9.492;2024-02-16T00:32:03;8.02;;;4.03;;
84021;SDS011;74108;48.636;9.492;2024-02-16T00:34:31;8.07;;;4.43;;
84021;SDS011;74108;48.636;9.492;2024-02-16T00:36:57;9.27;;;4.05;;
84021;SDS011;74108;48.636;9.492;2024-02-16T00:39:22;8.02;;;4.10;;
84021;SDS011;74108;48.636;9.492;2024-02-16T00:41:47;8.30;;;4.10;;
84021;SDS011;74108;48.636;9.492;2024-02-16T00:44:13;7.38;;;4.18;;
84021;SDS011;74108;48.636;9.492;2024-02-16T00:46:40;8.52;;;4.00;;
84021;SDS011;74108;48.636;9.492;2024-02-16T00:49:06;7.70;;;4.00;;
84021;SDS011;74108;48.636;9.492;2024-02-16T00:51:31;8.32;;;4.15;;
84021;SDS011;74108;48.636;9.492;2024-02-16T00:53:56;8.80;;;4.20;;
84021;SDS011;74108;48.636;9.492;2024-02-16T00:56:22;6.63;;;3.95;;
84021;SDS011;74108;48.636;9.492;2024-02-16T00:58:48;10.15;;;3.85;;
84021;SDS011;74108;48.636;9.492;2024-02-16T01:01:14;7.95;;;3.65;;
84021;SDS011;74108;48.636;9.492;2024-02-16T01:03:39;7.15;;;3.88;;
84021;SDS011;74108;48.636;9.492;2024-02-16T01:06:05;6.65;;;3.70;;
84021;SDS011;74108;48.636;9.492;2024-02-16T01:08:31;5.97;;;3.53;;
84021;SDS011;74108;48.636;9.492;2024-02-16T01:10:57;6.43;;;4.05;;
84021;SDS011;74108;48.636;9.492;2024-02-16T01:13:23;4.95;;;3.08;;
84021;SDS011;74108;48.636;9.492;2024-02-16T01:15:48;5.18;;;3.10;;
84021;SDS011;74108;48.636;9.492;2024-02-16T01:18:13;7.40;;;3.72;;
84021;SDS011;74108;48.636;9.492;2024-02-16T01:20:39;4.97;;;2.97;;
84021;SDS011;74108;48.636;9.492;2024-02-16T01:23:04;5.70;;;3.50;;
84021;SDS011;74108;48.636;9.492;2024-02-16T01:25:30;6.30;;;3.45;;
84021;SDS011;74108;48.636;9.492;2024-02-16T01:27:56;5.43;;;3.28;;
84021;SDS011;74108;48.636;9.492;2024-02-16T01:30:22;5.85;;;3.60;;
84021;SDS011;74108;48.636;9.492;2024-02-16T01:32:47;5.03;;;3.60;;
84021;SDS011;74108;48.636;9.492;2024-02-16T01:35:13;8.27;;;4.10;;
84021;SDS011;74108;48.636;9.492;2024-02-16T01:37:40;6.68;;;4.03;;
84021;SDS011;74108;48.636;9.492;2024-02-16T01:40:06;6.82;;;3.72;;
84021;SDS011;74108;48.636;9.492;2024-02-16T01:42:34;7.00;;;3.63;;
84021;SDS011;74108;48.636;9.492;2024-02-16T01:44:59;6.72;;;4.32;;
84021;SDS011;74108;48.636;9.492;2024-02-16T01:47:25;5.85;;;3.47;;
84021;SDS011;74108;48.636;9.492;2024-02-16T01:49:51;6.40;;;3.47;;
84021;SDS011;74108;48.636;9.492;2024-02-16T01:52:16;5.70;;;3.53;;
84021;SDS011;74108;48.636;9.492;2024-02-16T01:54:42;6.32;;;3.35;;
84021;SDS011;74108;48.636;9.492;2024-02-16T01:57:07;6.47;;;3.05;;
84021;SDS011;74108;48.636;9.492;2024-02-16T01:59:32;4.53;;;3.15;;
84021;SDS011;74108;48.636;9.492;2024-02-16T02:01:59;6.25;;;3.40;;
84021;SDS011;74108;48.636;9.492;2024-02-16T02:04:27;5.97;;;3.35;;
84021;SDS011;74108;48.636;9.492;2024-02-16T02:06:53;4.68;;;3.00;;
84021;SDS011;74108;48.636;9.492;2024-02-16T02:09:19;5.65;;;3.50;;
84021;SDS011;74108;48.636;9.492;2024-02-16T02:11:44;5.30;;;3.20;;
84021;SDS011;74108;48.636;9.492;2024-02-16T02:14:10;7.30;;;3.50;;
84021;SDS011;74108;48.636;9.492;2024-02-16T02:16:35;5.75;;;3.50;;
84021;SDS011;74108;48.636;9.492;2024-02-16T02:19:02;6.70;;;3.75;;
84021;SDS011;74108;48.636;9.492;2024-02-16T02:21:27;6.07;;;3.40;;
84021;SDS011;74108;48.636;9.492;2024-02-16T02:23:53;7.63;;;3.58;;
84021;SDS011;74108;48.636;9.492;2024-02-16T02:26:18;7.20;;;3.45;;
84021;SDS011;74108;48.636;9.492;2024-02-16T02:28:43;6.03;;;3.30;;
84021;SDS011;74108;48.636;9.492;2024-02-16T02:31:09;5.47;;;3.13;;
84021;SDS011;74108;48.636;9.492;2024-02-16T02:33:34;5.13;;;2.90;;
84021;SDS011;74108;48.636;9.492;2024-02-16T02:36:00;6.50;;;3.55;;
84021;SDS011;74108;48.636;9.492;2024-02-16T02:38:26;4.63;;;3.10;;
84021;SDS011;74108;48.636;9.492;2024-02-16T02:40:51;4.95;;;3.10;;
84021;SDS011;74108;48.636;9.492;2024-02-16T02:43:17;7.53;;;3.28;;
84021;SDS011;74108;48.636;9.492;2024-02-16T02:45:44;4.90;;;3.38;;
84021;SDS011;74108;48.636;9.492;2024-02-16T02:48:10;6.20;;;3.40;;
84021;SDS011;74108;48.636;9.492;2024-02-16T02:50:35;4.45;;;3.00;;
84021;SDS011;74108;48.636;9.492;2024-02-16T02:53:00;5.40;;;3.08;;
84021;SDS011;74108;48.636;9.492;2024-02-16T02:55:26;4.22;;;2.83;;
84021;SDS011;74108;48.636;9.492;2024-02-16T02:57:51;4.78;;;3.05;;
84021;SDS011;74108;48.636;9.492;2024-02-16T03:00:17;6.00;;;3.17;;
84021;SDS011;74108;48.636;9.492;2024-02-16T03:02:43;5.40;;;3.10;;
84021;SDS011;74108;48.636;9.492;2024-02-16T03:05:12;5.50;;;3.15;;
84021;SDS011;74108;48.636;9.492;2024-02-16T03:07:37;7.65;;;3.42;;
84021;SDS011;74108;48.636;9.492;2024-02-16T03:10:03;6.43;;;2.90;;
84021;SDS011;74108;48.636;9.492;2024-02-16T03:12:29;4.78;;;2.85;;
84021;SDS011;74108;48.636;9.492;2024-02-16T03:14:54;6.45;;;3.03;;
84021;SDS011;74108;48.636;9.492;2024-02-16T03:17:21;6.28;;;3.00;;
84021;SDS011;74108;48.636;9.492;2024-02-16T03:19:46;5.78;;;2.92;;
84021;SDS011;74108;48.636;9.492;2024-02-16T03:22:12;6.22;;;2.85;;
84021;SDS011;74108;48.636;9.492;2024-02-16T03:24:37;5.95;;;3.60;;
84021;SDS011;74108;48.636;9.492;2024-02-16T03:27:03;4.75;;;3.00;;
84021;SDS011;74108;48.636;9.492;2024-02-16T03:29:28;4.68;;;2.92;;
84021;SDS011;74108;48.636;9.492;2024-02-16T03:31:54;6.22;;;3.10;;
84021;SDS011;74108;48.636;9.492;2024-02-16T03:34:19;5.72;;;3.30;;
84021;SDS011;74108;48.636;9.492;2024-02-16T03:36:44;6.05;;;3.28;;
84021;SDS011;74108;48.636;9.492;2024-02-16T03:39:10;4.88;;;2.85;;
84021;SDS011;74108;48.636;9.492;2024-02-16T03:41:35;6.30;;;3.00;;
84021;SDS011;74108;48.636;9.492;2024-02-16T03:44:01;4.40;;;2.72;;
84021;SDS011;74108;48.636;9.492;2024-02-16T03:46:26;4.97;;;2.80;;
84021;SDS011;74108;48.636;9.492;2024-02-16T03:48:52;5.25;;;3.10;;
84021;SDS011;74108;48.636;9.492;2024-02-16T03:51:18;7.97;;;2.70;;
84021;SDS011;74108;48.636;9.492;2024-02-16T03:53:43;6.32;;;2.80;;
84021;SDS011;74108;48.636;9.492;2024-02-16T03:56:11;5.93;;;3.17;;
84021;SDS011;74108;48.636;9.492;2024-02-16T03:58:37;4.40;;;2.80;;
84021;SDS011;74108;48.636;9.492;2024-02-16T04:01:03;6.28;;;2.83;;
84021;SDS011;74108;48.636;9.492;2024-02-16T04:03:32;5.95;;;2.85;;
84021;SDS011;74108;48.636;9.492;2024-02-16T04:05:57;6.35;;;3.78;;
84021;SDS011;74108;48.636;9.492;2024-02-16T04:08:24;6.43;;;3.60;;
84021;SDS011;74108;48.636;9.492;2024-02-16T04:10:50;4.55;;;2.85;;
84021;SDS011;74108;48.636;9.492;2024-02-16T04:13:15;5.93;;;2.85;;
84021;SDS011;74108;48.636;9.492;2024-02-16T04:15:40;7.57;;;3.22;;
84021;SDS011;74108;48.636;9.492;2024-02-16T04:18:06;6.47;;;3.47;;
84021;SDS011;74108;48.636;9.492;2024-02-16T04:20:31;6.07;;;3.17;;
84021;SDS011;74108;48.636;9.492;2024-02-16T04:22:57;5.05;;;2.95;;
84021;SDS011;74108;48.636;9.492;2024-02-16T04:25:22;5.03;;;3.00;;
84021;SDS011;74108;48.636;9.492;2024-02-16T04:27:48;4.65;;;2.83;;
84021;SDS011;74108;48.636;9.492;2024-02-16T04:30:14;4.22;;;2.85;;
84021;SDS011;74108;48.636;9.492;2024-02-16T04:32:39;4.68;;;2.70;;
84021;SDS011;74108;48.636;9.492;2024-02-16T04:35:05;4.93;;;2.85;;
84021;SDS011;74108;48.636;9.492;2024-02-16T04:37:30;5.30;;;2.60;;
84021;SDS011;74108;48.636;9.492;2024-02-16T04:39:55;3.90;;;2.70;;
84021;SDS011;74108;48.636;9.492;2024-02-16T04:42:21;5.70;;;3.00;;
84021;SDS011;74108;48.636;9.492;2024-02-16T04:44:47;4.63;;;2.75;;
84021;SDS011;74108;48.636;9.492;2024-02-16T04:47:13;4.57;;;2.80;;
84021;SDS011;74108;48.636;9.492;2024-02-16T04:49:39;5.22;;;3.00;;
84021;SDS011;74108;48.636;9.492;2024-02-16T04:52:05;4.22;;;2.72;;
84021;SDS011;74108;48.636;9.492;2024-02-16T04:54:38;5.60;;;3.38;;
84021;SDS011;74108;48.636;9.492;2024-02-16T04:57:05;4.35;;;2.92;;
84021;SDS011;74108;48.636;9.492;2024-02-16T04:59:31;4.50;;;2.88;;
84021;SDS011;74108;48.636;9.492;2024-02-16T05:01:56;6.35;;;3.30;;
84021;SDS011;74108;48.636;9.492;2024-02-16T05:04:24;6.15;;;3.25;;
84021;SDS011;74108;48.636;9.492;2024-02-16T05:06:50;5.78;;;3.28;;
84021;SDS011;74108;48.636;9.492;2024-02-16T05:09:22;4.50;;;2.97;;
84021;SDS011;74108;48.636;9.492;2024-02-16T05:11:49;6.65;;;3.08;;
84021;SDS011;74108;48.636;9.492;2024-02-16T05:14:16;6.13;;;3.05;;
84021;SDS011;74108;48.636;9.492;2024-02-16T05:16:44;6.55;;;3.42;;
84021;SDS011;74108;48.636;9.492;2024-02-16T05:19:10;5.93;;;3.10;;
84021;SDS011;74108;48.636;9.492;2024-02-16T05:21:35;6.13;;;3.28;;
84021;SDS011;74108;48.636;9.492;2024-02-16T05:24:01;4.65;;;3.00;;
84021;SDS011;74108;48.636;9.492;2024-02-16T05:26:27;4.50;;;3.10;;
84021;SDS011;74108;48.636;9.492;2024-02-16T05:28:53;4.07;;;2.95;;
84021;SDS011;74108;48.636;9.492;2024-02-16T05:31:18;5.05;;;3.05;;
84021;SDS011;74108;48.636;9.492;2024-02-16T05:33:44;5.60;;;2.90;;
84021;SDS011;74108;48.636;9.492;2024-02-16T05:36:20;4.40;;;2.88;;
84021;SDS011;74108;48.636;9.492;2024-02-16T05:38:49;4.97;;;2.45;;
84021;SDS011;74108;48.636;9.492;2024-02-16T05:41:17;5.18;;;3.22;;
84021;SDS011;74108;48.636;9.492;2024-02-16T05:43:43;6.05;;;3.03;;
84021;SDS011;74108;48.636;9.492;2024-02-16T05:46:13;5.68;;;2.80;;
84021;SDS011;74108;48.636;9.492;2024-02-16T05:48:38;5.72;;;3.00;;
84021;SDS011;74108;48.636;9.492;2024-02-16T05:51:05;6.32;;;3.00;;
84021;SDS011;74108;48.636;9.492;2024-02-16T05:53:34;4.72;;;3.20;;
84021;SDS011;74108;48.636;9.492;2024-02-16T05:56:00;5.32;;;2.72;;
84021;SDS011;74108;48.636;9.492;2024-02-16T05:58:26;7.65;;;2.75;;
84021;SDS011;74108;48.636;9.492;2024-02-16T06:00:52;5.03;;;3.00;;
84021;SDS011;74108;48.636;9.492;2024-02-16T06:03:18;4.53;;;3.03;;
84021;SDS011;74108;48.636;9.492;2024-02-16T06:05:43;4.05;;;2.80;;
84021;SDS011;74108;48.636;9.492;2024-02-16T06:08:12;5.50;;;3.05;;
84021;SDS011;74108;48.636;9.492;2024-02-16T06:10:38;6.28;;;3.05;;
84021;SDS011;74108;48.636;9.492;2024-02-16T06:13:04;4.35;;;2.58;;
84021;SDS011;74108;48.636;9.492;2024-02-16T06:15:31;5.20;;;3.00;;
84021;SDS011;74108;48.636;9.492;2024-02-16T06:17:56;5.32;;;2.88;;
84021;SDS011;74108;48.636;9.492;2024-02-16T06:20:22;4.25;;;2.70;;
84021;SDS011;74108;48.636;9.492;2024-02-16T06:22:47;7.60;;;3.55;;
84021;SDS011;74108;48.636;9.492;2024-02-16T06:25:13;7.57;;;4.30;;
84021;SDS011;74108;48.636;9.492;2024-02-16T06:27:40;7.75;;;4.50;;
84021;SDS011;74108;48.636;9.492;2024-02-16T06:30:05;6.25;;;2.90;;
84021;SDS011;74108;48.636;9.492;2024-02-16T06:32:37;5.45;;;2.72;;
84021;SDS011;74108;48.636;9.492;2024-02-16T06:35:03;5.32;;;3.42;;
84021;SDS011;74108;48.636;9.492;2024-02-16T06:37:28;4.68;;;2.78;;
84021;SDS011;74108;48.636;9.492;2024-02-16T06:39:54;5.93;;;3.40;;
84021;SDS011;74108;48.636;9.492;2024-02-16T06:42:19;5.65;;;3.20;;
84021;SDS011;74108;48.636;9.492;2024-02-16T06:44:44;5.72;;;3.60;;
84021;SDS011;74108;48.636;9.492;2024-02-16T06:47:10;6.07;;;3.63;;
84021;SDS011;74108;48.636;9.492;2024-02-16T06:49:36;4.72;;;3.08;;
84021;SDS011;74108;48.636;9.492;2024-02-16T06:52:02;4.95;;;3.00;;
84021;SDS011;74108;48.636;9.492;2024-02-16T06:54:27;5.35;;;2.92;;
84021;SDS011;74108;48.636;9.492;2024-02-16T06:56:53;4.90;;;3.00;;
84021;SDS011;74108;48.636;9.492;2024-02-16T06:59:18;5.35;;;3.25;;
84021;SDS011;74108;48.636;9.492;2024-02-16T07:01:44;8.18;;;3.60;;
84021;SDS011;74108;48.636;9.492;2024-02-16T07:04:10;7.68;;;3.33;;
84021;SDS011;74108;48.636;9.492;2024-02-16T07:06:35;5.40;;;3.10;;
84021;SDS011;74108;48.636;9.492;2024-02-16T07:09:00;4.78;;;2.83;;
84021;SDS011;74108;48.636;9.492;2024-02-16T07:11:27;4.65;;;3.08;;
84021;SDS011;74108;48.636;9.492;2024-02-16T07:13:53;7.03;;;3.67;;
84021;SDS011;74108;48.636;9.492;2024-02-16T07:16:18;7.50;;;4.30;;
84021;SDS011;74108;48.636;9.492;2024-02-16T07:18:44;11.23;;;4.55;;
84021;SDS011;74108;48.636;9.492;2024-02-16T07:21:09;40.58;;;13.38;;
84021;SDS011;74108;48.636;9.492;2024-02-16T07:23:40;18.40;;;7.43;;
84021;SDS011;74108;48.636;9.492;2024-02-16T07:26:06;8.93;;;4.20;;
84021;SDS011;74108;48.636;9.492;2024-02-16T07:28:32;6.60;;;3.80;;
84021;SDS011;74108;48.636;9.492;2024-02-16T07:30:58;6.53;;;4.05;;
84021;SDS011;74108;48.636;9.492;2024-02-16T07:33:23;6.80;;;3.95;;
84021;SDS011;74108;48.636;9.492;2024-02-16T07:35:49;8.50;;;4.55;;
84021;SDS011;74108;48.636;9.492;2024-02-16T07:38:16;7.75;;;4.65;;
84021;SDS011;74108;48.636;9.492;2024-02-16T07:40:42;8.38;;;4.55;;
84021;SDS011;74108;48.636;9.492;2024-02-16T07:43:10;6.75;;;4.18;;
84021;SDS011;74108;48.636;9.492;2024-02-16T07:45:36;7.75;;;4.35;;
84021;SDS011;74108;48.636;9.492;2024-02-16T07:48:01;7.05;;;4.57;;
84021;SDS011;74108;48.636;9.492;2024-02-16T07:50:30;7.20;;;4.10;;
84021;SDS011;74108;48.636;9.492;2024-02-16T07:52:55;7.60;;;4.05;;
84021;SDS011;74108;48.636;9.492;2024-02-16T07:55:21;6.65;;;4.18;;
84021;SDS011;74108;48.636;9.492;2024-02-16T07:57:47;9.05;;;3.80;;
84021;SDS011;74108;48.636;9.492;2024-02-16T08:00:13;7.35;;;3.60;;
84021;SDS011;74108;48.636;9.492;2024-02-16T08:02:41;8.45;;;4.00;;
84021;SDS011;74108;48.636;9.492;2024-02-16T08:05:08;7.70;;;3.92;;
84021;SDS011;74108;48.636;9.492;2024-02-16T08:07:37;7.53;;;3.40;;
84021;SDS011;74108;48.636;9.492;2024-02-16T08:10:03;7.88;;;4.03;;
84021;SDS011;74108;48.636;9.492;2024-02-16T08:12:29;9.32;;;4.25;;
84021;SDS011;74108;48.636;9.492;2024-02-16T08:14:56;7.57;;;4.50;;
84021;SDS011;74108;48.636;9.492;2024-02-16T08:17:23;10.55;;;4.85;;
84021;SDS011;74108;48.636;9.492;2024-02-16T08:19:52;8.38;;;4.32;;
84021;SDS011;74108;48.636;9.492;2024-02-16T08:22:19;12.32;;;4.78;;
84021;SDS011;74108;48.636;9.492;2024-02-16T08:24:45;10.02;;;4.85;;
84021;SDS011;74108;48.636;9.492;2024-02-16T08:27:11;9.57;;;4.55;;
84021;SDS011;74108;48.636;9.492;2024-02-16T08:29:38;10.40;;;4.97;;
84021;SDS011;74108;48.636;9.492;2024-02-16T08:32:03;10.18;;;4.97;;
84021;SDS011;74108;48.636;9.492;2024-02-16T08:34:30;8.00;;;4.38;;
84021;SDS011;74108;48.636;9.492;2024-02-16T08:36:56;10.98;;;4.57;;
84021;SDS011;74108;48.636;9.492;2024-02-16T08:39:22;7.90;;;4.40;;
84021;SDS011;74108;48.636;9.492;2024-02-16T08:41:50;13.27;;;4.90;;
84021;SDS011;74108;48.636;9.492;2024-02-16T08:44:16;7.85;;;4.30;;
84021;SDS011;74108;48.636;9.492;2024-02-16T08:46:41;11.05;;;4.68;;
84021;SDS011;74108;48.636;9.492;2024-02-16T08:49:07;13.00;;;4.65;;
84021;SDS011;74108;48.636;9.492;2024-02-16T08:51:32;8.77;;;4.13;;
84021;SDS011;74108;48.636;9.492;2024-02-16T08:53:58;12.43;;;5.05;;
84021;SDS011;74108;48.636;9.492;2024-02-16T08:56:24;9.30;;;4.45;;
84021;SDS011;74108;48.636;9.492;2024-02-16T08:58:49;8.57;;;4.60;;
84021;SDS011;74108;48.636;9.492;2024-02-16T09:01:16;6.97;;;3.83;;
84021;SDS011;74108;48.636;9.492;2024-02-16T09:03:42;9.77;;;5.25;;
84021;SDS011;74108;48.636;9.492;2024-02-16T09:06:07;11.80;;;5.80;;
84021;SDS011;74108;48.636;9.492;2024-02-16T09:08:33;8.23;;;4.50;;
84021;SDS011;74108;48.636;9.492;2024-02-16T09:11:00;10.10;;;5.15;;
84021;SDS011;74108;48.636;9.492;2024-02-16T09:13:29;8.93;;;4.72;;
84021;SDS011;74108;48.636;9.492;2024-02-16T09:15:57;7.75;;;4.50;;
84021;SDS011;74108;48.636;9.492;2024-02-16T09:18:22;10.38;;;4.03;;
84021;SDS011;74108;48.636;9.492;2024-02-16T09:20:47;7.07;;;3.90;;
84021;SDS011;74108;48.636;9.492;2024-02-16T09:23:13;7.10;;;3.53;;
84021;SDS011;74108;48.636;9.492;2024-02-16T09:25:38;6.97;;;3.88;;
84021;SDS011;74108;48.636;9.492;2024-02-16T09:28:05;5.35;;;3.75;;
84021;SDS011;74108;48.636;9.492;2024-02-16T09:30:32;8.40;;;3.95;;
84021;SDS011;74108;48.636;9.492;2024-02-16T09:32:57;4.72;;;3.45;;
84021;SDS011;74108;48.636;9.492;2024-02-16T09:35:24;5.10;;;3.50;;
84021;SDS011;74108;48.636;9.492;2024-02-16T09:37:49;6.50;;;4.32;;
84021;SDS011;74108;48.636;9.492;2024-02-16T09:40:15;6.38;;;4.03;;
84021;SDS011;74108;48.636;9.492;2024-02-16T09:42:40;6.15;;;4.05;;
84021;SDS011;74108;48.636;9.492;2024-02-16T09:45:06;5.10;;;3.47;;
84021;SDS011;74108;48.636;9.492;2024-02-16T09:47:32;5.55;;;3.75;;
84021;SDS011;74108;48.636;9.492;2024-02-16T09:50:00;7.50;;;3.88;;
84021;SDS011;74108;48.636;9.492;2024-02-16T09:52:26;6.43;;;3.63;;
84021;SDS011;74108;48.636;9.492;2024-02-16T09:54:51;6.18;;;3.63;;
84021;SDS011;74108;48.636;9.492;2024-02-16T09:57:17;5.65;;;3.80;;
84021;SDS011;74108;48.636;9.492;2024-02-16T09:59:43;5.97;;;3.60;;
84021;SDS011;74108;48.636;9.492;2024-02-16T10:02:08;6.93;;;4.35;;
84021;SDS011;74108;48.636;9.492;2024-02-16T10:04:34;6.10;;;3.83;;
84021;SDS011;74108;48.636;9.492;2024-02-16T10:06:59;7.82;;;3.90;;
84021;SDS011;74108;48.636;9.492;2024-02-16T10:09:25;7.75;;;3.58;;
84021;SDS011;74108;48.636;9.492;2024-02-16T10:11:52;9.98;;;3.92;;
84021;SDS011;74108;48.636;9.492;2024-02-16T10:14:17;5.40;;;3.35;;
84021;SDS011;74108;48.636;9.492;2024-02-16T10:16:45;9.05;;;3.08;;
84021;SDS011;74108;48.636;9.492;2024-02-16T10:19:11;5.82;;;2.92;;
84021;SDS011;74108;48.636;9.492;2024-02-16T10:21:37;5.80;;;2.90;;
84021;SDS011;74108;48.636;9.492;2024-02-16T10:24:07;5.75;;;3.00;;
84021;SDS011;74108;48.636;9.492;2024-02-16T10:26:34;5.22;;;2.83;;
84021;SDS011;74108;48.636;9.492;2024-02-16T10:29:04;3.00;;;2.08;;
84021;SDS011;74108;48.636;9.492;2024-02-16T10:31:31;4.57;;;1.80;;
84021;SDS011;74108;48.636;9.492;2024-02-16T10:34:01;4.95;;;2.10;;
84021;SDS011;74108;48.636;9.492;2024-02-16T10:38:57;4.25;;;2.00;;
84021;SDS011;74108;48.636;9.492;2024-02-16T10:41:26;3.08;;;2.03;;
84021;SDS011;74108;48.636;9.492;2024-02-16T10:43:55;4.18;;;2.25;;
84021;SDS011;74108;48.636;9.492;2024-02-16T10:46:21;4.25;;;2.20;;
84021;SDS011;74108;48.636;9.492;2024-02-16T10:48:49;4.47;;;2.50;;
84021;SDS011;74108;48.636;9.492;2024-02-16T10:51:14;3.13;;;1.90;;
84021;SDS011;74108;48.636;9.492;2024-02-16T10:53:42;4.40;;;2.15;;
84021;SDS011;74108;48.636;9.492;2024-02-16T10:56:09;3.92;;;2.10;;
84021;SDS011;74108;48.636;9.492;2024-02-16T10:58:34;7.45;;;2.10;;
84021;SDS011;74108;48.636;9.492;2024-02-16T11:01:07;3.70;;;2.20;;
84021;SDS011;74108;48.636;9.492;2024-02-16T11:03:40;3.33;;;2.05;;
84021;SDS011;74108;48.636;9.492;2024-02-16T11:06:14;3.47;;;1.92;;
84021;SDS011;74108;48.636;9.492;2024-02-16T11:08:40;4.13;;;2.00;;
84021;SDS011;74108;48.636;9.492;2024-02-16T11:11:06;2.55;;;1.60;;
84021;SDS011;74108;48.636;9.492;2024-02-16T11:13:32;3.30;;;1.83;;
84021;SDS011;74108;48.636;9.492;2024-02-16T11:16:00;5.20;;;1.92;;
84021;SDS011;74108;48.636;9.492;2024-02-16T11:18:32;2.80;;;1.75;;
84021;SDS011;74108;48.636;9.492;2024-02-16T11:21:01;2.88;;;1.88;;
84021;SDS011;74108;48.636;9.492;2024-02-16T11:23:27;3.42;;;1.67;;
84021;SDS011;74108;48.636;9.492;2024-02-16T11:26:00;2.80;;;1.90;;
84021;SDS011;74108;48.636;9.492;2024-02-16T11:28:27;4.43;;;2.00;;
84021;SDS011;74108;48.636;9.492;2024-02-16T11:30:54;6.50;;;2.13;;
84021;SDS011;74108;48.636;9.492;2024-02-16T11:33:19;3.42;;;1.90;;
84021;SDS011;74108;48.636;9.492;2024-02-16T11:35:55;4.00;;;1.92;;
84021;SDS011;74108;48.636;9.492;2024-02-16T11:38:22;5.35;;;2.10;;
84021;SDS011;74108;48.636;9.492;2024-02-16T11:40:58;3.38;;;1.70;;
84021;SDS011;74108;48.636;9.492;2024-02-16T11:43:28;3.20;;;1.85;;
84021;SDS011;74108;48.636;9.492;2024-02-16T11:45:54;3.20;;;1.80;;
84021;SDS011;74108;48.636;9.492;2024-02-16T11:48:21;2.97;;;1.77;;
84021;SDS011;74108;48.636;9.492;2024-02-16T11:50:48;5.03;;;1.70;;
84021;SDS011;74108;48.636;9.492;2024-02-16T11:53:15;2.95;;;1.90;;
84021;SDS011;74108;48.636;9.492;2024-02-16T11:55:48;2.70;;;1.60;;
84021;SDS011;74108;48.636;9.492;2024-02-16T11:58:16;3.70;;;1.88;;
84021;SDS011;74108;48.636;9.492;2024-02-16T12:00:49;3.78;;;1.70;;
84021;SDS011;74108;48.636;9.492;2024-02-16T12:03:21;3.92;;;1.90;;
84021;SDS011;74108;48.636;9.492;2024-02-16T12:05:54;3.40;;;1.80;;
84021;SDS011;74108;48.636;9.492;2024-02-16T12:08:22;3.88;;;1.80;;
84021;SDS011;74108;48.636;9.492;2024-02-16T12:10:48;3.28;;;1.60;;
84021;SDS011;74108;48.636;9.492;2024-02-16T12:13:16;2.83;;;1.70;;
84021;SDS011;74108;48.636;9.492;2024-02-16T12:15:49;4.20;;;1.63;;
84021;SDS011;74108;48.636;9.492;2024-02-16T12:18:23;3.90;;;2.10;;
84021;SDS011;74108;48.636;9.492;2024-02-16T12:21:02;28.35;;;14.07;;
84021;SDS011;74108;48.636;9.492;2024-02-16T12:23:30;9.77;;;4.72;;
84021;SDS011;74108;48.636;9.492;2024-02-16T12:25:58;8.13;;;4.95;;
84021;SDS011;74108;48.636;9.492;2024-02-16T12:28:28;8.07;;;2.97;;
84021;SDS011;74108;48.636;9.492;2024-02-16T12:30:58;4.20;;;2.20;;
84021;SDS011;74108;48.636;9.492;2024-02-16T12:33:24;6.18;;;2.55;;
84021;SDS011;74108;48.636;9.492;2024-02-16T12:35:50;5.28;;;2.40;;
84021;SDS011;74108;48.636;9.492;2024-02-16T12:38:16;3.83;;;1.85;;
84021;SDS011;74108;48.636;9.492;2024-02-16T12:40:49;2.92;;;1.92;;
84021;SDS011;74108;48.636;9.492;2024-02-16T12:43:14;4.03;;;2.00;;
84021;SDS011;74108;48.636;9.492;2024-02-16T12:45:43;3.92;;;2.10;;
84021;SDS011;74108;48.636;9.492;2024-02-16T12:48:08;3.25;;;1.90;;
84021;SDS011;74108;48.636;9.492;2024-02-16T12:50:40;3.30;;;1.92;;
84021;SDS011;74108;48.636;9.492;2024-02-16T12:53:07;3.15;;;1.83;;
84021;SDS011;74108;48.636;9.492;2024-02-16T12:55:33;3.55;;;1.75;;
84021;SDS011;74108;48.636;9.492;2024-02-16T12:57:58;3.22;;;1.80;;
84021;SDS011;74108;48.636;9.492;2024-02-16T13:00:24;4.07;;;2.13;;
84021;SDS011;74108;48.636;9.492;2024-02-16T13:02:50;4.72;;;2.53;;
84021;SDS011;74108;48.636;9.492;2024-02-16T13:05:15;4.60;;;2.30;;
84021;SDS011;74108;48.636;9.492;2024-02-16T13:07:41;5.70;;;3.10;;
84021;SDS011;74108;48.636;9.492;2024-02-16T13:10:07;4.10;;;2.58;;
84021;SDS011;74108;48.636;9.492;2024-02-16T13:12:33;3.72;;;2.45;;
84021;SDS011;74108;48.636;9.492;2024-02-16T13:14:58;4.97;;;2.20;;
84021;SDS011;74108;48.636;9.492;2024-02-16T13:17:24;9.93;;;5.13;;
84021;SDS011;74108;48.636;9.492;2024-02-16T13:19:49;8.85;;;5.30;;
84021;SDS011;74108;48.636;9.492;2024-02-16T13:22:14;10.60;;;5.97;;
84021;SDS011;74108;48.636;9.492;2024-02-16T13:24:41;13.20;;;7.78;;
84021;SDS011;74108;48.636;9.492;2024-02-16T13:27:07;9.90;;;5.65;;
84021;SDS011;74108;48.636;9.492;2024-02-16T13:29:32;10.77;;;5.50;;
84021;SDS011;74108;48.636;9.492;2024-02-16T13:31:58;13.20;;;3.20;;
84021;SDS011;74108;48.636;9.492;2024-02-16T13:34:24;4.03;;;2.30;;
84021;SDS011;74108;48.636;9.492;2024-02-16T13:36:51;3.90;;;1.90;;
84021;SDS011;74108;48.636;9.492;2024-02-16T13:39:16;3.63;;;1.92;;
84021;SDS011;74108;48.636;9.492;2024-02-16T13:41:42;4.03;;;2.00;;
84021;SDS011;74108;48.636;9.492;2024-02-16T13:44:09;4.68;;;1.90;;
84021;SDS011;74108;48.636;9.492;2024-02-16T13:46:35;3.55;;;2.13;;
84021;SDS011;74108;48.636;9.492;2024-02-16T13:49:00;3.63;;;1.80;;
84021;SDS011;74108;48.636;9.492;2024-02-16T13:51:25;5.28;;;2.15;;
84021;SDS011;74108;48.636;9.492;2024-02-16T13:53:51;5.80;;;2.25;;
84021;SDS011;74108;48.636;9.492;2024-02-16T13:56:17;5.25;;;2.08;;
84021;SDS011;74108;48.636;9.492;2024-02-16T13:58:43;4.25;;;2.10;;
84021;SDS011;74108;48.636;9.492;2024-02-16T14:01:08;8.02;;;3.05;;
84021;SDS011;74108;48.636;9.492;2024-02-16T14:03:34;5.85;;;2.25;;
84021;SDS011;74108;48.636;9.492;2024-02-16T14:06:01;5.70;;;2.20;;
84021;SDS011;74108;48.636;9.492;2024-02-16T14:08:27;4.22;;;2.20;;
84021;SDS011;74108;48.636;9.492;2024-02-16T14:10:52;3.90;;;2.28;;
84021;SDS011;74108;48.636;9.492;2024-02-16T14:13:18;5.57;;;2.20;;
84021;SDS011;74108;48.636;9.492;2024-02-16T14:15:43;5.10;;;2.00;;
84021;SDS011;74108;48.636;9.492;2024-02-16T14:18:08;5.18;;;2.25;;
84021;SDS011;74108;48.636;9.492;2024-02-16T14:20:34;6.20;;;2.45;;
84021;SDS011;74108;48.636;9.492;2024-02-16T14:23:00;5.78;;;2.30;;
84021;SDS011;74108;48.636;9.492;2024-02-16T14:27:53;6.47;;;2.80;;
84021;SDS011;74108;48.636;9.492;2024-02-16T14:30:18;3.67;;;2.05;;
84021;SDS011;74108;48.636;9.492;2024-02-16T14:32:44;5.13;;;1.95;;
84021;SDS011;74108;48.636;9.492;2024-02-16T14:35:09;3.42;;;2.17;;
84021;SDS011;74108;48.636;9.492;2024-02-16T14:37:35;4.95;;;2.22;;
84021;SDS011;74108;48.636;9.492;2024-02-16T14:40:01;3.60;;;2.10;;
84021;SDS011;74108;48.636;9.492;2024-02-16T14:42:28;5.10;;;2.28;;
84021;SDS011;74108;48.636;9.492;2024-02-16T14:44:54;6.55;;;2.72;;